createdAt,value
2018-11-01T00:01:48.430Z,10.37
2018-11-01T00:04:16.629Z,13.43
2018-11-01T00:06:44.860Z,10.00
2018-11-01T00:09:13.041Z,10.63
2018-11-01T00:11:41.213Z,9.03
2018-11-01T00:14:09.387Z,10.07
2018-11-01T00:16:38.416Z,10.70
2018-11-01T00:19:06.603Z,12.70
2018-11-01T00:21:34.792Z,10.13
2018-11-01T00:24:02.974Z,12.73
2018-11-01T00:26:31.127Z,12.13
2018-11-01T00:28:59.481Z,10.70
2018-11-01T00:31:27.646Z,11.90
2018-11-01T00:33:55.805Z,12.83
2018-11-01T00:36:24.042Z,12.40
2018-11-01T00:38:52.205Z,10.93
2018-11-01T00:41:20.373Z,13.50
2018-11-01T00:43:48.603Z,12.50
2018-11-01T00:46:16.762Z,13.17
2018-11-01T00:48:45.197Z,13.57
2018-11-01T00:51:13.413Z,20.97
2018-11-01T00:53:41.565Z,15.20
2018-11-01T00:56:09.725Z,13.13
2018-11-01T00:58:37.877Z,20.50
2018-11-01T01:01:06.209Z,14.23
2018-11-01T01:03:34.361Z,12.20
2018-11-01T01:06:02.524Z,18.07
2018-11-01T01:08:30.701Z,13.67
2018-11-01T01:10:58.911Z,14.50
2018-11-01T01:13:27.098Z,12.40
2018-11-01T01:15:55.317Z,13.60
2018-11-01T01:18:23.447Z,16.40
2018-11-01T01:20:51.619Z,21.13
2018-11-01T01:23:19.771Z,18.83
2018-11-01T01:25:47.984Z,17.23
2018-11-01T01:28:16.134Z,15.27
2018-11-01T01:30:44.347Z,16.20
2018-11-01T01:33:12.487Z,13.47
2018-11-01T01:35:40.674Z,17.87
2018-11-01T01:38:08.947Z,16.17
2018-11-01T01:40:37.147Z,19.37
2018-11-01T01:43:05.317Z,22.40
2018-11-01T01:45:33.498Z,19.30
2018-11-01T01:48:01.677Z,16.53
2018-11-01T01:50:29.913Z,16.17
2018-11-01T01:52:58.036Z,20.40
2018-11-01T01:55:26.241Z,19.07
2018-11-01T01:57:54.459Z,16.80
2018-11-01T02:00:22.642Z,23.43
2018-11-01T02:02:51.989Z,21.50
2018-11-01T02:05:20.188Z,17.60
2018-11-01T02:07:48.325Z,18.13
2018-11-01T02:10:17.413Z,16.67
2018-11-01T02:12:45.572Z,20.67
2018-11-01T02:15:15.897Z,19.73
2018-11-01T02:17:44.497Z,23.87
2018-11-01T02:20:14.220Z,21.10
2018-11-01T02:22:43.177Z,22.47
2018-11-01T02:25:11.324Z,20.77
2018-11-01T02:27:45.005Z,22.50
2018-11-01T02:30:14.251Z,22.03
2018-11-01T02:32:43.182Z,21.80
2018-11-01T02:35:12.745Z,19.73
2018-11-01T02:37:41.091Z,21.77
2018-11-01T02:40:10.006Z,22.00
2018-11-01T02:42:38.595Z,22.40
2018-11-01T02:45:07.609Z,18.67
2018-11-01T02:47:35.954Z,19.63
2018-11-01T02:50:04.408Z,17.53
2018-11-01T02:52:32.705Z,20.10
2018-11-01T02:55:00.872Z,19.07
2018-11-01T02:57:29.032Z,21.97
2018-11-01T02:59:57.269Z,20.83
2018-11-01T03:02:25.441Z,19.67
2018-11-01T03:04:53.604Z,21.03
2018-11-01T03:07:21.783Z,20.60
2018-11-01T03:09:49.934Z,20.70
2018-11-01T03:12:18.156Z,25.17
2018-11-01T03:14:46.299Z,22.03
2018-11-01T03:17:14.457Z,22.80
2018-11-01T03:19:42.615Z,17.20
2018-11-01T03:22:11.890Z,17.53
2018-11-01T03:24:40.096Z,23.23
2018-11-01T03:27:08.262Z,29.33
2018-11-01T03:29:36.442Z,22.53
2018-11-01T03:32:04.989Z,22.97
2018-11-01T03:34:33.172Z,23.70
2018-11-01T03:37:01.372Z,20.93
2018-11-01T03:39:29.602Z,25.37
2018-11-01T03:41:57.765Z,22.80
2018-11-01T03:44:25.992Z,24.47
2018-11-01T03:46:54.284Z,22.90
2018-11-01T03:49:22.458Z,25.20
2018-11-01T03:51:50.736Z,27.80
2018-11-01T03:54:18.914Z,24.00
2018-11-01T03:56:47.020Z,22.73
2018-11-01T03:59:15.203Z,21.17
2018-11-01T04:01:43.565Z,29.83
2018-11-01T04:04:11.719Z,25.40
2018-11-01T04:06:39.892Z,21.87
2018-11-01T04:09:10.542Z,25.17
2018-11-01T04:11:39.040Z,27.00
2018-11-01T04:14:07.391Z,22.43
2018-11-01T04:16:35.743Z,27.63
2018-11-01T04:19:04.095Z,21.67
2018-11-01T04:21:32.288Z,22.27
2018-11-01T04:24:00.497Z,23.87
2018-11-01T04:26:28.983Z,27.43
2018-11-01T04:28:57.618Z,24.97
2018-11-01T04:31:25.834Z,20.87
2018-11-01T04:33:54.069Z,22.20
2018-11-01T04:36:22.272Z,22.30
2018-11-01T04:38:50.450Z,27.80
2018-11-01T04:41:18.634Z,23.90
2018-11-01T04:43:46.836Z,23.27
2018-11-01T04:46:15.081Z,34.33
2018-11-01T04:48:43.230Z,25.80
2018-11-01T04:51:11.607Z,23.50
2018-11-01T04:53:39.817Z,25.00
2018-11-01T04:56:08.405Z,23.37
2018-11-01T04:58:36.794Z,25.50
2018-11-01T05:01:05.003Z,23.07
2018-11-01T05:03:33.269Z,29.20
2018-11-01T05:06:01.433Z,32.27
2018-11-01T05:08:29.619Z,30.53
2018-11-01T05:10:57.771Z,28.47
2018-11-01T05:13:26.033Z,30.50
2018-11-01T05:15:54.193Z,25.77
2018-11-01T05:18:22.402Z,31.97
2018-11-01T05:20:50.568Z,30.40
2018-11-01T05:23:18.725Z,28.80
2018-11-01T05:25:46.956Z,30.20
2018-11-01T05:28:15.141Z,29.23
2018-11-01T05:30:43.390Z,31.57
2018-11-01T05:33:11.607Z,29.27
2018-11-01T05:35:39.782Z,29.60
2018-11-01T05:38:08.015Z,29.47
2018-11-01T05:40:36.184Z,28.57
2018-11-01T05:43:04.663Z,28.80
2018-11-01T05:45:33.722Z,26.63
2018-11-01T05:48:01.934Z,30.27
2018-11-01T05:50:30.118Z,30.83
2018-11-01T05:52:58.317Z,29.80
2018-11-01T05:55:26.487Z,32.60
2018-11-01T05:57:54.699Z,33.03
2018-11-01T06:00:22.882Z,28.77
2018-11-01T06:02:51.280Z,32.90
2018-11-01T06:05:19.460Z,31.73
2018-11-01T06:07:59.165Z,38.93
2018-11-01T06:10:27.689Z,34.20
2018-11-01T06:12:55.891Z,39.10
2018-11-01T06:15:24.436Z,34.73
2018-11-01T06:17:52.605Z,35.07
2018-11-01T06:20:20.789Z,33.47
2018-11-01T06:22:49.028Z,33.13
2018-11-01T06:25:17.186Z,33.53
2018-11-01T06:27:45.376Z,36.37
2018-11-01T06:30:14.961Z,34.17
2018-11-01T06:32:43.816Z,36.13
2018-11-01T06:35:29.171Z,35.30
2018-11-01T06:37:57.437Z,38.90
2018-11-01T06:40:25.620Z,37.03
2018-11-01T06:42:53.856Z,36.20
2018-11-01T06:45:23.280Z,41.07
2018-11-01T06:47:54.962Z,36.27
2018-11-01T06:50:23.198Z,42.90
2018-11-01T06:52:52.028Z,34.90
2018-11-01T06:55:20.238Z,39.03
2018-11-01T06:57:48.413Z,36.30
2018-11-01T07:00:16.986Z,43.30
2018-11-01T07:02:45.190Z,37.03
2018-11-01T07:05:13.450Z,39.60
2018-11-01T07:07:41.684Z,36.73
2018-11-01T07:10:12.216Z,39.47
2018-11-01T07:12:40.556Z,40.73
2018-11-01T07:15:09.995Z,38.87
2018-11-01T07:17:38.525Z,44.20
2018-11-01T07:20:08.290Z,39.43
2018-11-01T07:22:37.281Z,41.97
2018-11-01T07:25:06.749Z,39.30
2018-11-01T07:27:35.457Z,43.73
2018-11-01T07:30:03.842Z,41.00
2018-11-01T07:32:32.099Z,37.63
2018-11-01T07:35:00.352Z,39.93
2018-11-01T07:37:28.536Z,37.80
2018-11-01T07:39:59.966Z,37.23
2018-11-01T07:42:28.966Z,36.00
2018-11-01T07:44:57.152Z,42.63
2018-11-01T07:47:25.471Z,38.37
2018-11-01T07:49:53.711Z,43.97
2018-11-01T07:52:21.968Z,37.30
2018-11-01T07:54:50.674Z,42.70
2018-11-01T07:57:18.871Z,40.50
2018-11-01T07:59:47.039Z,42.17
2018-11-01T08:02:15.256Z,34.77
2018-11-01T08:04:43.453Z,41.23
2018-11-01T08:07:11.688Z,37.77
2018-11-01T08:09:39.872Z,38.73
2018-11-01T08:12:08.117Z,53.67
2018-11-01T08:14:36.293Z,38.80
2018-11-01T08:17:04.729Z,43.70
2018-11-01T08:19:33.008Z,42.50
2018-11-01T08:22:01.188Z,41.43
2018-11-01T08:24:29.511Z,42.77
2018-11-01T08:26:57.791Z,39.63
2018-11-01T08:29:26.561Z,42.17
2018-11-01T08:31:54.722Z,41.60
2018-11-01T08:34:23.751Z,43.53
2018-11-01T08:36:52.001Z,40.23
2018-11-01T08:39:20.216Z,45.07
2018-11-01T08:41:48.429Z,44.37
2018-11-01T08:44:16.643Z,37.40
2018-11-01T08:46:44.831Z,36.50
2018-11-01T08:49:13.229Z,41.20
2018-11-01T08:51:41.408Z,42.27
2018-11-01T08:54:09.743Z,48.20
2018-11-01T08:56:38.077Z,43.90
2018-11-01T08:59:06.574Z,40.17
2018-11-01T09:01:34.973Z,42.87
2018-11-01T09:04:03.359Z,37.53
2018-11-01T09:06:31.595Z,37.30
2018-11-01T09:08:59.785Z,44.53
2018-11-01T09:11:27.984Z,35.83
2018-11-01T09:13:56.207Z,37.07
2018-11-01T09:16:24.423Z,43.70
2018-11-01T09:18:52.667Z,44.60
2018-11-01T09:21:20.929Z,35.00
2018-11-01T09:23:49.125Z,37.70
2018-11-01T09:26:17.359Z,38.07
2018-11-01T09:28:45.564Z,37.90
2018-11-01T09:31:13.813Z,41.57
2018-11-01T09:33:41.994Z,41.97
2018-11-01T09:36:10.235Z,42.00
2018-11-01T09:38:38.414Z,38.47
2018-11-01T09:41:06.993Z,31.40
2018-11-01T09:43:35.165Z,34.70
2018-11-01T09:46:03.484Z,32.03
2018-11-01T09:48:31.600Z,30.37
2018-11-01T09:51:00.180Z,32.37
2018-11-01T09:53:28.475Z,34.23
2018-11-01T09:55:56.913Z,34.53
2018-11-01T09:58:24.951Z,32.47
2018-11-01T10:00:53.297Z,33.60
2018-11-01T10:03:21.426Z,28.93
2018-11-01T10:05:49.677Z,30.67
2018-11-01T10:08:17.906Z,31.83
2018-11-01T10:10:47.248Z,33.60
2018-11-01T10:13:15.482Z,33.30
2018-11-01T10:15:43.879Z,31.00
2018-11-01T10:18:12.339Z,29.97
2018-11-01T10:20:40.241Z,32.70
2018-11-01T10:23:08.617Z,28.30
2018-11-01T10:25:36.715Z,29.20
2018-11-01T10:28:05.156Z,28.90
2018-11-01T10:30:33.350Z,26.03
2018-11-01T10:33:01.544Z,23.53
2018-11-01T10:35:29.856Z,25.67
2018-11-01T10:37:58.082Z,25.00
2018-11-01T10:40:26.308Z,24.97
2018-11-01T10:42:54.473Z,25.20
2018-11-01T10:45:22.705Z,21.73
2018-11-01T10:47:51.024Z,20.47
2018-11-01T10:50:20.703Z,16.63
2018-11-01T10:52:48.932Z,23.57
2018-11-01T10:55:17.221Z,25.80
2018-11-01T10:57:45.430Z,21.77
2018-11-01T11:00:19.222Z,22.27
2018-11-01T11:02:48.902Z,26.37
2018-11-01T11:05:18.208Z,27.43
2018-11-01T11:07:46.569Z,21.93
2018-11-01T11:10:15.007Z,27.50
2018-11-01T11:12:43.222Z,24.10
2018-11-01T11:15:11.520Z,21.03
2018-11-01T11:17:40.305Z,20.40
2018-11-01T11:20:09.668Z,24.47
2018-11-01T11:22:37.816Z,21.97
2018-11-01T11:25:07.563Z,32.73
2018-11-01T11:27:35.786Z,26.60
2018-11-01T11:30:04.099Z,19.50
2018-11-01T11:32:32.730Z,22.63
2018-11-01T11:35:00.975Z,20.00
2018-11-01T11:37:29.219Z,21.57
2018-11-01T11:39:57.661Z,25.60
2018-11-01T11:42:25.906Z,31.50
2018-11-01T11:44:54.111Z,20.73
2018-11-01T11:47:22.382Z,23.87
2018-11-01T11:49:50.769Z,23.97
2018-11-01T11:52:19.013Z,22.40
2018-11-01T11:54:47.261Z,18.17
2018-11-01T11:57:15.705Z,18.93
2018-11-01T11:59:43.944Z,20.37
2018-11-01T12:02:12.211Z,21.00
2018-11-01T12:04:40.461Z,19.00
2018-11-01T12:07:08.635Z,21.30
2018-11-01T12:09:36.903Z,16.50
2018-11-01T12:12:05.100Z,19.37
2018-11-01T12:14:33.324Z,17.50
2018-11-01T12:17:01.615Z,20.90
2018-11-01T12:19:29.867Z,19.13
2018-11-01T12:21:58.039Z,20.20
2018-11-01T12:24:26.220Z,17.47
2018-11-01T12:26:54.608Z,20.77
2018-11-01T12:29:22.843Z,20.27
2018-11-01T12:31:51.115Z,18.30
2018-11-01T12:34:19.301Z,28.60
2018-11-01T12:36:47.533Z,21.70
2018-11-01T12:39:15.769Z,17.70
2018-11-01T12:41:44.019Z,18.90
2018-11-01T12:44:12.149Z,21.10
2018-11-01T12:46:40.356Z,21.20
2018-11-01T12:49:08.641Z,19.87
2018-11-01T12:51:36.879Z,25.50
2018-11-01T12:54:05.298Z,17.53
2018-11-01T12:56:33.611Z,23.07
2018-11-01T12:59:01.740Z,18.77
2018-11-01T13:01:30.059Z,18.70
2018-11-01T13:03:58.271Z,13.60
2018-11-01T13:06:26.511Z,17.40
2018-11-01T13:08:54.703Z,18.80
2018-11-01T13:11:22.932Z,24.93
2018-11-01T13:13:51.205Z,18.70
2018-11-01T13:16:19.424Z,15.90
2018-11-01T13:18:47.729Z,18.83
2018-11-01T13:21:16.163Z,24.93
2018-11-01T13:23:44.469Z,17.20
2018-11-01T13:26:12.632Z,19.20
2018-11-01T13:28:40.825Z,23.40
2018-11-01T13:31:15.685Z,19.90
2018-11-01T13:33:43.912Z,21.23
2018-11-01T13:36:12.186Z,21.37
2018-11-01T13:38:40.367Z,23.53
2018-11-01T13:41:09.086Z,21.93
2018-11-01T13:43:36.940Z,20.97
2018-11-01T13:46:05.144Z,21.60
2018-11-01T13:48:33.434Z,21.43
2018-11-01T13:51:01.644Z,21.33
2018-11-01T13:53:29.861Z,20.93
2018-11-01T13:55:58.069Z,25.00
2018-11-01T13:58:26.273Z,26.10
2018-11-01T14:00:54.502Z,17.03
2018-11-01T14:03:22.716Z,25.30
2018-11-01T14:05:51.065Z,21.43
2018-11-01T14:08:19.262Z,20.73
2018-11-01T14:10:47.444Z,19.40
2018-11-01T14:13:15.652Z,19.63
2018-11-01T14:15:43.866Z,20.60
2018-11-01T14:18:12.120Z,19.37
2018-11-01T14:20:40.338Z,24.50
2018-11-01T14:23:08.565Z,23.10
2018-11-01T14:25:36.871Z,18.50
2018-11-01T14:28:05.280Z,19.23
2018-11-01T14:30:33.458Z,24.67
2018-11-01T14:33:01.726Z,21.10
2018-11-01T14:35:29.876Z,24.20
2018-11-01T14:37:58.136Z,20.20
2018-11-01T14:40:28.723Z,19.53
2018-11-01T14:42:57.439Z,29.30
2018-11-01T14:45:25.974Z,22.07
2018-11-01T14:47:54.549Z,23.67
2018-11-01T14:50:23.135Z,23.60
2018-11-01T14:52:51.696Z,27.03
2018-11-01T14:55:20.131Z,20.50
2018-11-01T14:57:49.574Z,20.97
2018-11-01T15:00:16.893Z,21.37
2018-11-01T15:02:45.295Z,17.47
2018-11-01T15:05:13.607Z,21.70
2018-11-01T15:07:41.945Z,22.10
2018-11-01T15:10:12.001Z,21.20
2018-11-01T15:12:40.205Z,20.10
2018-11-01T15:15:09.038Z,20.50
2018-11-01T15:17:37.354Z,22.20
2018-11-01T15:20:05.989Z,29.13
2018-11-01T15:22:34.201Z,17.93
2018-11-01T15:25:02.575Z,26.57
2018-11-01T15:27:30.784Z,26.40
2018-11-01T15:29:59.060Z,20.77
2018-11-01T15:32:29.292Z,30.40
2018-11-01T15:34:58.162Z,18.80
2018-11-01T15:37:26.401Z,26.40
2018-11-01T15:39:55.511Z,27.33
2018-11-01T15:42:23.840Z,26.63
2018-11-01T15:44:52.035Z,24.63
2018-11-01T15:47:20.626Z,25.27
2018-11-01T15:49:48.948Z,23.07
2018-11-01T15:52:17.250Z,28.23
2018-11-01T15:54:45.616Z,23.13
2018-11-01T15:57:13.814Z,22.60
2018-11-01T15:59:42.108Z,37.17
2018-11-01T16:02:10.367Z,25.67
2018-11-01T16:04:38.517Z,24.93
2018-11-01T16:07:06.930Z,19.97
2018-11-01T16:09:35.231Z,20.67
2018-11-01T16:12:03.499Z,24.67
2018-11-01T16:14:31.709Z,25.77
2018-11-01T16:16:59.938Z,18.83
2018-11-01T16:19:28.216Z,22.90
2018-11-01T16:21:56.411Z,23.63
2018-11-01T16:24:24.666Z,28.90
2018-11-01T16:26:52.924Z,28.07
2018-11-01T16:29:21.915Z,24.30
2018-11-01T16:31:50.938Z,25.67
2018-11-01T16:34:19.193Z,23.17
2018-11-01T16:36:47.684Z,25.60
2018-11-01T16:39:15.840Z,25.70
2018-11-01T16:41:44.067Z,27.07
2018-11-01T16:44:12.383Z,25.60
2018-11-01T16:46:40.628Z,30.33
2018-11-01T16:49:09.628Z,26.80
2018-11-01T16:51:38.203Z,30.17
2018-11-01T16:54:06.639Z,23.60
2018-11-01T16:56:34.828Z,19.77
2018-11-01T16:59:03.084Z,28.33
2018-11-01T17:01:31.246Z,24.40
2018-11-01T17:03:59.795Z,28.27
2018-11-01T17:06:29.635Z,27.67
2018-11-01T17:08:57.844Z,25.40
2018-11-01T17:11:26.530Z,27.47
2018-11-01T17:13:56.258Z,23.13
2018-11-01T17:16:24.954Z,25.50
2018-11-01T17:18:53.276Z,27.23
2018-11-01T17:21:21.754Z,23.27
2018-11-01T17:23:50.188Z,29.67
2018-11-01T17:26:18.417Z,28.80
2018-11-01T17:28:46.644Z,29.30
2018-11-01T17:31:14.835Z,33.50
2018-11-01T17:33:44.165Z,31.00
2018-11-01T17:36:12.530Z,22.43
2018-11-01T17:38:40.801Z,37.57
2018-11-01T17:41:09.040Z,27.43
2018-11-01T17:43:37.770Z,27.50
2018-11-01T17:46:05.998Z,24.80
2018-11-01T17:48:34.253Z,24.83
2018-11-01T17:51:02.528Z,34.43
2018-11-01T17:53:30.756Z,24.07
2018-11-01T17:55:58.926Z,27.20
2018-11-01T17:58:27.182Z,30.03
2018-11-01T18:00:55.416Z,25.33
2018-11-01T18:03:23.701Z,25.53
2018-11-01T18:05:51.956Z,26.73
2018-11-01T18:08:20.364Z,34.13
2018-11-01T18:10:48.567Z,26.80
2018-11-01T18:13:16.789Z,24.30
2018-11-01T18:15:44.953Z,25.80
2018-11-01T18:18:13.234Z,23.60
2018-11-01T18:20:41.470Z,27.57
2018-11-01T18:23:09.827Z,25.63
2018-11-01T18:25:43.414Z,23.43
2018-11-01T18:28:11.679Z,27.70
2018-11-01T18:30:39.959Z,27.83
2018-11-01T18:33:08.408Z,27.73
2018-11-01T18:35:36.484Z,23.63
2018-11-01T18:38:06.341Z,27.87
2018-11-01T18:40:34.544Z,25.07
2018-11-01T18:43:02.783Z,22.87
2018-11-01T18:45:30.954Z,21.87
2018-11-01T18:47:59.160Z,25.57
2018-11-01T18:50:27.783Z,19.03
2018-11-01T18:52:55.980Z,22.70
2018-11-01T18:55:24.333Z,23.23
2018-11-01T18:57:52.531Z,23.17
2018-11-01T19:00:21.165Z,21.17
2018-11-01T19:02:49.453Z,24.93
2018-11-01T19:05:18.206Z,22.37
2018-11-01T19:07:46.743Z,26.83
2018-11-01T19:10:15.328Z,24.23
2018-11-01T19:12:43.604Z,19.40
2018-11-01T19:15:13.011Z,30.10
2018-11-01T19:17:41.513Z,31.10
2018-11-01T19:20:10.670Z,23.33
2018-11-01T19:22:39.089Z,26.80
2018-11-01T19:25:08.075Z,23.73
2018-11-01T19:27:36.468Z,20.03
2018-11-01T19:30:05.692Z,22.80
2018-11-01T19:32:34.001Z,21.60
2018-11-01T19:35:02.485Z,17.03
2018-11-01T19:37:31.035Z,21.67
2018-11-01T19:39:59.375Z,21.37
2018-11-01T19:42:27.648Z,15.17
2018-11-01T19:44:55.995Z,19.23
2018-11-01T19:47:24.351Z,20.33
2018-11-01T19:49:52.595Z,16.67
2018-11-01T19:52:20.837Z,15.03
2018-11-01T19:54:49.203Z,18.30
2018-11-01T19:57:17.384Z,21.67
2018-11-01T19:59:45.788Z,18.13
2018-11-01T20:02:14.058Z,26.63
2018-11-01T20:04:42.285Z,21.93
2018-11-01T20:07:10.532Z,17.57
2018-11-01T20:09:38.846Z,24.27
2018-11-01T20:12:07.337Z,19.33
2018-11-01T20:14:35.673Z,19.27
2018-11-01T20:17:03.902Z,17.40
2018-11-01T20:19:32.131Z,14.67
2018-11-01T20:22:00.402Z,18.23
2018-11-01T20:24:28.651Z,19.13
2018-11-01T20:26:56.876Z,17.60
2018-11-01T20:29:25.235Z,19.13
2018-11-01T20:31:53.683Z,20.33
2018-11-01T20:34:22.223Z,16.17
2018-11-01T20:36:50.706Z,16.97
2018-11-01T20:39:18.986Z,12.47
2018-11-01T20:41:47.408Z,20.60
2018-11-01T20:44:15.668Z,12.17
2018-11-01T20:46:43.961Z,13.17
2018-11-01T20:49:12.163Z,16.07
2018-11-01T20:51:40.428Z,11.67
2018-11-01T20:54:08.712Z,15.40
2018-11-01T20:56:37.018Z,14.67
2018-11-01T20:59:05.392Z,14.40
2018-11-01T21:01:33.636Z,17.33
2018-11-01T21:04:02.064Z,12.67
2018-11-01T21:06:30.282Z,14.17
2018-11-01T21:08:58.587Z,12.07
2018-11-01T21:11:27.023Z,14.60
2018-11-01T21:13:55.195Z,15.23
2018-11-01T21:16:23.700Z,14.03
2018-11-01T21:18:52.073Z,10.10
2018-11-01T21:21:20.294Z,11.43
2018-11-01T21:23:48.598Z,17.37
2018-11-01T21:26:16.887Z,13.80
2018-11-01T21:28:45.213Z,16.30
2018-11-01T21:31:13.487Z,23.30
2018-11-01T21:33:42.510Z,15.03
2018-11-01T21:36:10.877Z,19.83
2018-11-01T21:38:39.090Z,13.57
2018-11-01T21:41:07.340Z,17.07
2018-11-01T21:43:35.593Z,15.37
2018-11-01T21:46:03.811Z,10.70
2018-11-01T21:48:32.063Z,14.03
2018-11-01T21:51:00.272Z,16.03
2018-11-01T21:53:28.531Z,12.40
2018-11-01T21:55:56.772Z,12.23
2018-11-01T21:58:25.071Z,17.90
2018-11-01T22:00:53.403Z,11.80
2018-11-01T22:03:21.621Z,13.23
2018-11-01T22:05:49.840Z,23.20
2018-11-01T22:08:18.088Z,13.00
2018-11-01T22:10:46.378Z,29.47
2018-11-01T22:13:14.627Z,12.30
2018-11-01T22:15:42.939Z,14.37
2018-11-01T22:18:11.236Z,22.63
2018-11-01T22:20:39.429Z,11.30
2018-11-01T22:23:07.665Z,12.43
2018-11-01T22:25:35.941Z,15.90
2018-11-01T22:28:04.710Z,13.67
2018-11-01T22:30:32.947Z,17.80
2018-11-01T22:33:01.206Z,16.10
2018-11-01T22:35:29.441Z,13.33
2018-11-01T22:37:57.657Z,18.33
2018-11-01T22:40:25.968Z,17.90
2018-11-01T22:42:54.153Z,19.80
2018-11-01T22:45:22.349Z,16.30
2018-11-01T22:47:50.555Z,11.27
2018-11-01T22:50:18.904Z,14.30
2018-11-01T22:52:47.147Z,15.20
2018-11-01T22:55:15.319Z,18.70
2018-11-01T22:57:43.529Z,14.23
2018-11-01T23:00:13.385Z,14.33
2018-11-01T23:02:41.940Z,13.67
2018-11-01T23:05:11.604Z,14.77
2018-11-01T23:07:39.971Z,15.50
2018-11-01T23:10:10.293Z,12.73
2018-11-01T23:12:38.653Z,15.37
2018-11-01T23:15:07.460Z,12.30
2018-11-01T23:17:35.681Z,16.40
2018-11-01T23:20:04.034Z,13.50
2018-11-01T23:22:32.293Z,19.00
2018-11-01T23:25:00.493Z,16.17
2018-11-01T23:27:28.697Z,20.10
2018-11-01T23:29:56.938Z,22.27
2018-11-01T23:32:25.139Z,13.73
2018-11-01T23:34:53.399Z,19.07
2018-11-01T23:37:27.018Z,13.63
2018-11-01T23:40:00.662Z,13.60
2018-11-01T23:42:34.341Z,12.13
2018-11-01T23:45:08.034Z,12.30
2018-11-01T23:47:41.633Z,15.83
2018-11-01T23:50:19.141Z,14.20
2018-11-01T23:52:50.557Z,15.53
2018-11-01T23:55:18.789Z,14.83
2018-11-01T23:57:46.964Z,21.10
